createdAt,value
2023-04-09T00:00:07.796Z,91.40
2023-04-09T00:01:07.846Z,91.71
2023-04-09T00:02:07.791Z,91.19
2023-04-09T00:03:07.931Z,91.50
2023-04-09T00:04:07.935Z,91.09
2023-04-09T00:05:07.759Z,91.81
2023-04-09T00:06:07.740Z,92.27
2023-04-09T00:07:07.857Z,92.33
2023-04-09T00:08:07.804Z,92.33
2023-04-09T00:09:07.767Z,91.91
2023-04-09T00:10:07.731Z,91.91
2023-04-09T00:11:07.727Z,91.50
2023-04-09T00:12:07.708Z,91.30
2023-04-09T00:13:07.723Z,91.71
2023-04-09T00:14:07.722Z,91.75
2023-04-09T00:15:11.051Z,91.40
2023-04-09T00:16:08.900Z,91.40
2023-04-09T00:17:07.701Z,91.40
2023-04-09T00:18:07.780Z,91.81
2023-04-09T00:19:07.710Z,92.12
2023-04-09T00:20:07.678Z,91.30
2023-04-09T00:21:07.640Z,91.09
2023-04-09T00:22:07.657Z,91.71
2023-04-09T00:23:07.630Z,91.30
2023-04-09T00:24:07.701Z,91.40
2023-04-09T00:25:07.640Z,91.44
2023-04-09T00:26:07.711Z,91.60
2023-04-09T00:27:07.610Z,91.40
2023-04-09T00:28:07.675Z,91.60
2023-04-09T00:29:07.614Z,91.81
2023-04-09T00:30:07.575Z,91.71
2023-04-09T00:31:07.647Z,91.81
2023-04-09T00:32:07.573Z,92.33
2023-04-09T00:33:07.589Z,91.81
2023-04-09T00:34:07.565Z,91.71
2023-04-09T00:35:07.587Z,91.60
2023-04-09T00:36:07.611Z,91.91
2023-04-09T00:37:07.537Z,92.02
2023-04-09T00:38:07.513Z,91.71
2023-04-09T00:39:07.506Z,92.16
2023-04-09T00:40:07.513Z,91.96
2023-04-09T00:41:07.504Z,91.85
2023-04-09T00:42:07.480Z,91.71
2023-04-09T00:43:07.483Z,91.91
2023-04-09T00:44:07.515Z,91.96
2023-04-09T00:45:07.471Z,92.22
2023-04-09T00:46:07.490Z,92.47
2023-04-09T00:47:07.453Z,92.02
2023-04-09T00:48:07.440Z,92.16
2023-04-09T00:49:07.445Z,92.88
2023-04-09T00:50:07.437Z,92.37
2023-04-09T00:51:07.438Z,92.57
2023-04-09T00:52:07.474Z,92.57
2023-04-09T00:53:07.406Z,92.33
2023-04-09T00:54:07.398Z,92.22
2023-04-09T00:55:07.390Z,92.88
2023-04-09T00:56:07.365Z,92.88
2023-04-09T00:57:08.413Z,92.94
2023-04-09T00:58:07.402Z,92.99
2023-04-09T00:59:07.367Z,92.37
2023-04-09T01:00:07.346Z,92.99
2023-04-09T01:01:07.352Z,92.63
2023-04-09T01:02:07.376Z,92.99
2023-04-09T01:03:07.412Z,93.30
2023-04-09T01:04:07.343Z,92.78
2023-04-09T01:05:07.307Z,92.78
2023-04-09T01:06:07.286Z,92.68
2023-04-09T01:07:07.289Z,92.68
2023-04-09T01:08:07.280Z,92.84
2023-04-09T01:09:07.290Z,92.63
2023-04-09T01:10:07.281Z,92.99
2023-04-09T01:11:07.272Z,92.88
2023-04-09T01:12:07.283Z,92.88
2023-04-09T01:13:07.253Z,93.19
2023-04-09T01:14:07.252Z,92.88
2023-04-09T01:15:07.236Z,92.57
2023-04-09T01:16:07.345Z,93.60
2023-04-09T01:17:07.230Z,92.57
2023-04-09T01:18:07.223Z,92.99
2023-04-09T01:19:07.199Z,92.99
2023-04-09T01:20:07.201Z,93.19
2023-04-09T01:21:07.192Z,93.40
2023-04-09T01:22:07.174Z,93.19
2023-04-09T01:23:07.223Z,92.99
2023-04-09T01:24:07.186Z,92.84
2023-04-09T01:25:07.189Z,92.88
2023-04-09T01:26:07.183Z,92.99
2023-04-09T01:27:07.133Z,92.88
2023-04-09T01:28:07.136Z,92.88
2023-04-09T01:29:07.134Z,92.47
2023-04-09T01:30:07.201Z,92.88
2023-04-09T01:31:07.260Z,92.99
2023-04-09T01:32:07.147Z,92.68
2023-04-09T01:33:07.114Z,92.47
2023-04-09T01:34:07.070Z,92.37
2023-04-09T01:35:07.056Z,92.99
2023-04-09T01:36:07.214Z,92.88
2023-04-09T01:37:07.067Z,92.88
2023-04-09T01:38:07.109Z,93.30
2023-04-09T01:39:07.039Z,92.88
2023-04-09T01:40:08.018Z,92.68
2023-04-09T01:41:07.074Z,92.68
2023-04-09T01:42:07.089Z,92.61
2023-04-09T01:43:07.066Z,93.50
2023-04-09T01:44:07.025Z,93.09
2023-04-09T01:45:07.051Z,93.09
2023-04-09T01:46:07.022Z,93.54
2023-04-09T01:47:07.008Z,93.60
2023-04-09T01:48:06.983Z,93.50
2023-04-09T01:49:06.993Z,93.81
2023-04-09T01:50:06.971Z,93.75
2023-04-09T01:51:06.976Z,93.40
2023-04-09T01:52:06.991Z,93.09
2023-04-09T01:53:06.946Z,93.03
2023-04-09T01:54:06.916Z,93.50
2023-04-09T01:55:06.935Z,93.75
2023-04-09T01:56:06.930Z,93.50
2023-04-09T01:57:06.953Z,93.75
2023-04-09T01:58:06.929Z,93.40
2023-04-09T01:59:06.921Z,93.54
2023-04-09T02:00:06.895Z,93.30
2023-04-09T02:01:06.930Z,93.40
2023-04-09T02:02:06.926Z,93.65
2023-04-09T02:03:06.973Z,93.60
2023-04-09T02:04:07.048Z,93.44
2023-04-09T02:05:06.845Z,93.44
2023-04-09T02:06:06.842Z,93.75
2023-04-09T02:07:06.874Z,93.75
2023-04-09T02:08:06.841Z,93.34
2023-04-09T02:09:07.837Z,93.40
2023-04-09T02:10:06.877Z,93.60
2023-04-09T02:11:06.834Z,93.50
2023-04-09T02:12:06.808Z,93.50
2023-04-09T02:13:06.823Z,93.75
2023-04-09T02:14:06.829Z,93.96
2023-04-09T02:15:06.771Z,93.75
2023-04-09T02:16:06.786Z,94.17
2023-04-09T02:17:06.779Z,93.85
2023-04-09T02:18:06.787Z,94.06
2023-04-09T02:19:07.617Z,93.85
2023-04-09T02:20:06.734Z,93.96
2023-04-09T02:21:06.736Z,94.17
2023-04-09T02:22:06.763Z,93.96
2023-04-09T02:23:06.713Z,93.96
2023-04-09T02:24:06.759Z,93.96
2023-04-09T02:25:06.734Z,94.27
2023-04-09T02:26:06.699Z,94.37
2023-04-09T02:27:07.654Z,94.17
2023-04-09T02:28:06.779Z,94.78
2023-04-09T02:29:06.688Z,95.20
2023-04-09T02:30:06.734Z,94.78
2023-04-09T02:31:06.671Z,94.68
2023-04-09T02:32:06.697Z,95.20
2023-04-09T02:33:06.655Z,94.68
2023-04-09T02:34:06.671Z,94.68
2023-04-09T02:35:06.680Z,94.78
2023-04-09T02:36:06.714Z,94.89
2023-04-09T02:37:06.634Z,94.06
2023-04-09T02:38:06.659Z,94.27
2023-04-09T02:39:06.604Z,94.47
2023-04-09T02:40:06.597Z,94.27
2023-04-09T02:41:06.589Z,94.17
2023-04-09T02:42:06.611Z,94.17
2023-04-09T02:43:06.643Z,94.27
2023-04-09T02:44:06.552Z,94.17
2023-04-09T02:45:06.548Z,94.27
2023-04-09T02:46:06.570Z,94.17
2023-04-09T02:47:06.550Z,94.06
2023-04-09T02:48:06.547Z,94.17
2023-04-09T02:49:06.524Z,94.17
2023-04-09T02:50:06.503Z,94.89
2023-04-09T02:51:06.531Z,94.89
2023-04-09T02:52:06.504Z,94.57
2023-04-09T02:53:06.493Z,94.06
2023-04-09T02:54:06.492Z,94.37
2023-04-09T02:55:06.462Z,94.68
2023-04-09T02:56:06.502Z,94.78
2023-04-09T02:57:06.478Z,94.47
2023-04-09T02:58:06.438Z,94.57
2023-04-09T02:59:06.454Z,94.32
2023-04-09T03:00:06.442Z,94.89
2023-04-09T03:01:06.472Z,94.78
2023-04-09T03:02:06.610Z,94.27
2023-04-09T03:03:06.516Z,94.68
2023-04-09T03:04:06.489Z,94.47
2023-04-09T03:05:06.393Z,94.17
2023-04-09T03:06:06.405Z,94.17
2023-04-09T03:07:06.411Z,94.53
2023-04-09T03:08:06.456Z,94.68
2023-04-09T03:09:06.461Z,94.57
2023-04-09T03:10:06.360Z,94.37
2023-04-09T03:11:06.343Z,94.17
2023-04-09T03:12:06.346Z,94.47
2023-04-09T03:13:06.380Z,94.99
2023-04-09T03:14:06.335Z,94.37
2023-04-09T03:15:06.339Z,94.78
2023-04-09T03:16:07.296Z,94.78
2023-04-09T03:17:06.320Z,94.78
2023-04-09T03:18:06.351Z,94.37
2023-04-09T03:19:06.337Z,94.99
2023-04-09T03:20:06.316Z,94.37
2023-04-09T03:21:06.278Z,94.37
2023-04-09T03:22:06.291Z,94.47
2023-04-09T03:23:06.258Z,94.17
2023-04-09T03:24:06.304Z,94.17
2023-04-09T03:25:06.259Z,94.78
2023-04-09T03:26:06.283Z,94.99
2023-04-09T03:27:06.248Z,94.89
2023-04-09T03:28:06.379Z,94.89
2023-04-09T03:29:06.229Z,94.78
2023-04-09T03:30:06.213Z,94.68
2023-04-09T03:31:06.266Z,94.78
2023-04-09T03:32:06.188Z,94.47
2023-04-09T03:33:06.227Z,94.78
2023-04-09T03:34:06.241Z,94.89
2023-04-09T03:35:06.190Z,94.78
2023-04-09T03:36:06.208Z,94.78
2023-04-09T03:37:06.182Z,94.99
2023-04-09T03:38:06.199Z,94.78
2023-04-09T03:39:06.160Z,94.37
2023-04-09T03:40:06.132Z,94.17
2023-04-09T03:41:06.167Z,94.47
2023-04-09T03:42:06.158Z,94.37
2023-04-09T03:43:06.202Z,94.37
2023-04-09T03:44:06.128Z,94.17
2023-04-09T03:45:06.992Z,94.37
2023-04-09T03:46:06.666Z,94.27
2023-04-09T03:47:06.137Z,94.37
2023-04-09T04:02:58.283Z,95.34
2023-04-09T04:03:58.166Z,95.55
2023-04-09T04:04:58.074Z,95.45
2023-04-09T04:05:58.067Z,95.96
2023-04-09T04:06:59.224Z,95.65
2023-04-09T04:07:59.211Z,95.45
2023-04-09T04:08:59.202Z,95.14
2023-04-09T04:10:00.821Z,95.14
2023-04-09T04:10:59.174Z,95.14
2023-04-09T04:11:59.173Z,95.34
2023-04-09T04:12:59.178Z,95.34
2023-04-09T04:13:59.134Z,95.14
2023-04-09T04:14:59.128Z,95.14
2023-04-09T04:15:59.127Z,94.89
2023-04-09T04:16:59.151Z,95.86
2023-04-09T04:17:59.175Z,95.14
2023-04-09T04:18:59.095Z,94.72
2023-04-09T04:19:59.103Z,94.62
2023-04-09T04:20:59.105Z,94.72
2023-04-09T04:21:59.086Z,94.62
2023-04-09T04:22:59.101Z,94.93
2023-04-09T04:23:59.067Z,94.47
2023-04-09T04:24:59.093Z,94.89
2023-04-09T04:25:59.037Z,94.62
2023-04-09T04:26:59.057Z,94.57
2023-04-09T04:27:59.053Z,94.68
2023-04-09T04:28:59.049Z,94.78
2023-04-09T04:29:59.053Z,94.47
2023-04-09T04:30:59.002Z,94.68
2023-04-09T04:31:59.116Z,94.89
2023-04-09T04:32:59.077Z,94.72
2023-04-09T04:33:58.977Z,94.99
2023-04-09T04:34:59.019Z,95.09
2023-04-09T04:35:59.033Z,94.78
2023-04-09T04:36:58.952Z,94.89
2023-04-09T04:37:58.945Z,94.68
2023-04-09T04:38:58.934Z,94.62
2023-04-09T04:39:58.946Z,95.03
2023-04-09T04:40:58.928Z,94.62
2023-04-09T04:41:58.914Z,94.99
2023-04-09T04:42:58.912Z,94.99
2023-04-09T04:43:58.916Z,95.09
2023-04-09T04:44:58.913Z,94.99
2023-04-09T04:45:58.931Z,94.78
2023-04-09T04:46:58.891Z,94.78
2023-04-09T04:47:59.014Z,94.78
2023-04-09T04:48:58.867Z,95.20
2023-04-09T04:49:58.884Z,95.20
2023-04-09T04:50:58.861Z,95.09
2023-04-09T04:51:58.886Z,95.09
2023-04-09T04:52:58.841Z,95.14
2023-04-09T04:53:58.822Z,95.09
2023-04-09T04:54:58.829Z,94.93
2023-04-09T04:55:58.804Z,94.89
2023-04-09T04:56:58.809Z,94.68
2023-04-09T04:57:58.780Z,94.89
2023-04-09T04:58:58.804Z,94.62
2023-04-09T04:59:58.779Z,94.72
2023-04-09T05:00:58.794Z,94.57
2023-04-09T05:01:58.947Z,94.47
2023-04-09T05:02:58.981Z,94.68
2023-04-09T05:03:58.901Z,94.68
2023-04-09T05:04:58.767Z,94.78
2023-04-09T05:05:59.514Z,94.57
2023-04-09T05:06:58.735Z,94.57
2023-04-09T05:07:58.798Z,94.78
2023-04-09T05:08:58.791Z,94.78
2023-04-09T05:09:58.866Z,94.78
2023-04-09T05:10:58.689Z,94.89
2023-04-09T05:11:58.727Z,94.57
2023-04-09T05:12:58.695Z,94.57
2023-04-09T05:13:58.667Z,94.89
2023-04-09T05:14:58.676Z,94.78
2023-04-09T05:15:58.662Z,94.37
2023-04-09T05:16:58.792Z,94.89
2023-04-09T05:17:58.676Z,94.99
2023-04-09T05:18:58.656Z,94.78
2023-04-09T05:19:58.653Z,94.12
2023-04-09T05:20:58.645Z,94.12
2023-04-09T05:21:58.621Z,94.17
2023-04-09T05:22:58.616Z,94.78
2023-04-09T05:23:59.282Z,94.89
2023-04-09T05:24:58.584Z,94.27
2023-04-09T05:25:58.617Z,94.27
2023-04-09T05:26:59.865Z,94.37
2023-04-09T05:27:58.574Z,94.47
2023-04-09T05:28:58.576Z,94.78
2023-04-09T05:30:00.661Z,94.43
2023-04-09T05:30:59.571Z,94.37
2023-04-09T05:31:58.541Z,94.64
2023-04-09T05:32:58.583Z,94.78
2023-04-09T05:33:58.548Z,94.12
2023-04-09T05:34:58.543Z,94.64
2023-04-09T05:35:58.553Z,94.74
2023-04-09T05:36:58.503Z,94.23
2023-04-09T05:37:58.496Z,94.43
2023-04-09T05:38:58.474Z,94.43
2023-04-09T05:39:58.487Z,94.43
2023-04-09T05:40:58.469Z,94.32
2023-04-09T05:41:58.511Z,94.32
2023-04-09T05:42:59.315Z,94.84
2023-04-09T05:44:00.522Z,94.43
2023-04-09T05:44:58.468Z,94.43
2023-04-09T05:45:58.430Z,94.23
2023-04-09T05:46:58.419Z,94.32
2023-04-09T05:47:58.445Z,94.53
2023-04-09T05:48:58.464Z,94.32
2023-04-09T05:49:58.397Z,94.74
2023-04-09T05:51:00.347Z,94.32
2023-04-09T05:51:58.453Z,94.12
2023-04-09T05:52:58.449Z,94.12
2023-04-09T05:53:58.402Z,94.32
2023-04-09T05:54:58.393Z,95.05
2023-04-09T05:55:58.344Z,94.12
2023-04-09T05:56:58.356Z,94.23
2023-04-09T05:57:58.376Z,94.08
2023-04-09T05:58:58.368Z,94.28
2023-04-09T05:59:58.372Z,94.08
2023-04-09T06:00:58.309Z,94.74
2023-04-09T06:01:58.335Z,94.32
2023-04-09T06:02:58.359Z,94.59
2023-04-09T06:03:59.049Z,94.08
2023-04-09T06:04:58.921Z,94.18
2023-04-09T06:05:58.271Z,94.08
2023-04-09T06:06:58.313Z,94.18
2023-04-09T06:07:58.268Z,93.98
2023-04-09T06:08:58.254Z,93.98
2023-04-09T06:09:58.268Z,94.28
2023-04-09T06:10:58.235Z,93.98
2023-04-09T06:11:58.232Z,93.87
2023-04-09T06:12:58.210Z,94.08
2023-04-09T06:13:58.232Z,93.77
2023-04-09T06:14:58.193Z,93.98
2023-04-09T06:15:58.247Z,93.66
2023-04-09T06:16:58.260Z,93.77
2023-04-09T06:17:59.457Z,93.66
2023-04-09T06:18:59.193Z,93.98
2023-04-09T06:19:58.140Z,94.08
2023-04-09T06:20:58.147Z,93.98
2023-04-09T06:21:58.813Z,93.87
2023-04-09T06:22:58.137Z,94.03
2023-04-09T06:23:58.143Z,93.73
2023-04-09T06:24:58.137Z,93.31
2023-04-09T06:25:58.146Z,93.73
2023-04-09T06:26:58.114Z,93.66
2023-04-09T06:27:58.095Z,93.73
2023-04-09T06:28:58.144Z,93.73
2023-04-09T06:29:58.184Z,94.03
2023-04-09T06:30:58.133Z,93.73
2023-04-09T06:31:58.106Z,93.83
2023-04-09T06:32:58.060Z,93.93
2023-04-09T06:33:58.062Z,94.13
2023-04-09T06:34:58.084Z,93.93
2023-04-09T06:35:58.121Z,93.88
2023-04-09T06:36:58.030Z,93.73
2023-04-09T06:37:58.029Z,93.37
2023-04-09T06:38:58.042Z,93.48
2023-04-09T06:40:01.398Z,93.37
2023-04-09T06:40:59.178Z,92.76
2023-04-09T06:41:58.009Z,93.58
2023-04-09T06:42:58.002Z,93.06
2023-04-09T06:43:58.066Z,92.59
2023-04-09T06:44:57.977Z,92.59
2023-04-09T06:45:58.824Z,92.80
2023-04-09T06:46:57.985Z,92.44
2023-04-09T06:47:58.049Z,93.16
2023-04-09T06:48:57.969Z,93.37
2023-04-09T06:49:57.919Z,92.86
2023-04-09T06:50:57.971Z,93.48
2023-04-09T06:51:57.920Z,92.44
2023-04-09T06:52:57.920Z,92.65
2023-04-09T06:53:58.007Z,92.86
2023-04-09T06:54:57.886Z,92.86
2023-04-09T06:55:57.893Z,92.61
2023-04-09T06:56:57.915Z,92.82
2023-04-09T06:57:57.885Z,92.82
2023-04-09T06:58:58.177Z,92.55
2023-04-09T06:59:57.892Z,92.86
2023-04-09T07:00:57.858Z,92.30
2023-04-09T07:01:57.927Z,92.40
2023-04-09T07:02:58.044Z,92.50
2023-04-09T07:03:58.023Z,92.30
2023-04-09T07:04:57.826Z,92.40
2023-04-09T07:05:57.848Z,92.16
2023-04-09T07:06:57.827Z,92.50
2023-04-09T07:07:57.855Z,92.25
2023-04-09T07:08:57.800Z,91.64
2023-04-09T07:09:57.876Z,91.74
2023-04-09T07:10:57.798Z,92.05
2023-04-09T07:11:57.883Z,91.19
2023-04-09T07:12:57.803Z,91.49
2023-04-09T07:13:57.741Z,90.88
2023-04-09T07:14:57.749Z,90.88
2023-04-09T07:15:57.748Z,91.29
2023-04-09T07:16:57.770Z,91.08
2023-04-09T07:17:58.006Z,90.98
2023-04-09T07:18:57.707Z,90.73
2023-04-09T07:19:57.905Z,90.78
2023-04-09T07:20:57.714Z,90.57
2023-04-09T07:21:57.958Z,90.67
2023-04-09T07:22:57.706Z,90.78
2023-04-09T07:23:57.746Z,91.29
2023-04-09T07:24:57.700Z,91.29
2023-04-09T07:25:57.694Z,90.94
2023-04-09T07:26:57.646Z,90.73
2023-04-09T07:27:57.642Z,90.36
2023-04-09T07:28:57.655Z,90.06
2023-04-09T07:29:57.914Z,90.83
2023-04-09T07:30:57.639Z,90.22
2023-04-09T07:31:57.685Z,89.81
2023-04-09T07:32:57.601Z,90.32
2023-04-09T07:33:57.689Z,90.32
2023-04-09T07:34:57.699Z,89.50
2023-04-09T07:35:58.362Z,89.15
2023-04-09T07:36:57.632Z,89.46
2023-04-09T07:37:57.544Z,89.25
2023-04-09T07:38:57.567Z,89.31
2023-04-09T07:39:57.602Z,88.80
2023-04-09T07:40:57.578Z,88.70
2023-04-09T07:41:57.639Z,88.70
2023-04-09T07:42:57.525Z,87.67
2023-04-09T07:43:57.568Z,88.49
2023-04-09T07:44:57.509Z,88.35
2023-04-09T07:45:57.501Z,87.12
2023-04-09T07:46:57.591Z,87.94
2023-04-09T07:47:57.546Z,87.67
2023-04-09T07:48:57.494Z,87.16
2023-04-09T07:49:57.587Z,88.04
2023-04-09T07:50:57.491Z,87.32
2023-04-09T07:51:57.525Z,87.02
2023-04-09T07:52:57.496Z,86.50
2023-04-09T07:53:57.432Z,87.22
2023-04-09T07:54:57.937Z,87.18
2023-04-09T07:55:57.447Z,87.18
2023-04-09T07:56:57.401Z,86.77
2023-04-09T07:57:57.462Z,86.36
2023-04-09T07:58:57.487Z,86.46
2023-04-09T07:59:57.383Z,86.98
2023-04-09T08:00:57.375Z,86.36
2023-04-09T08:01:57.428Z,86.25
2023-04-09T08:02:57.713Z,86.05
2023-04-09T08:03:57.579Z,86.98
2023-04-09T08:04:57.454Z,85.64
2023-04-09T08:05:57.329Z,86.15
2023-04-09T08:06:57.395Z,85.85
2023-04-09T08:07:57.326Z,86.28
2023-04-09T08:08:57.427Z,84.95
2023-04-09T08:09:57.311Z,84.60
2023-04-09T08:10:57.306Z,84.09
2023-04-09T08:11:57.276Z,83.47
2023-04-09T08:12:57.336Z,83.47
2023-04-09T08:13:57.286Z,83.17
2023-04-09T08:14:57.254Z,83.68
2023-04-09T08:15:57.336Z,84.29
2023-04-09T08:16:57.275Z,82.86
2023-04-09T08:17:57.257Z,83.88
2023-04-09T08:18:57.316Z,82.62
2023-04-09T08:19:57.374Z,82.86
2023-04-09T08:20:57.229Z,82.71
2023-04-09T08:21:57.212Z,83.17
2023-04-09T08:22:57.189Z,83.17
2023-04-09T08:23:58.217Z,82.92
2023-04-09T08:24:57.189Z,82.76
2023-04-09T08:25:57.173Z,82.59
2023-04-09T08:26:57.193Z,83.37
2023-04-09T08:27:57.140Z,83.27
2023-04-09T08:28:57.190Z,82.41
2023-04-09T08:29:57.212Z,82.65
2023-04-09T08:30:57.237Z,83.00
2023-04-09T08:31:57.166Z,83.20
2023-04-09T08:32:57.171Z,82.86
2023-04-09T08:33:57.112Z,82.79
2023-04-09T08:34:57.117Z,83.20
2023-04-09T08:35:57.126Z,83.00
2023-04-09T08:37:29.766Z,82.83
2023-04-09T08:37:57.091Z,83.76
2023-04-09T08:38:57.165Z,83.45
2023-04-09T08:39:57.068Z,83.96
2023-04-09T08:40:57.124Z,83.10
2023-04-09T08:41:57.076Z,83.37
2023-04-09T08:42:57.100Z,82.65
2023-04-09T08:43:59.215Z,81.94
2023-04-09T08:44:58.042Z,82.62
2023-04-09T08:45:57.123Z,80.49
2023-04-09T08:46:58.454Z,79.47
2023-04-09T08:47:57.081Z,80.29
2023-04-09T08:48:57.004Z,78.95
2023-04-09T08:49:56.997Z,75.81
2023-04-09T08:50:56.994Z,73.47
2023-04-09T08:51:57.009Z,74.66
2023-04-09T08:52:56.959Z,74.93
2023-04-09T08:53:57.002Z,73.77
2023-04-09T08:54:56.989Z,73.60
2023-04-09T08:55:56.946Z,71.97
2023-04-09T08:56:56.953Z,71.36
2023-04-09T08:57:56.964Z,71.33
2023-04-09T08:58:56.919Z,72.04
2023-04-09T08:59:56.954Z,71.70
2023-04-09T09:00:56.898Z,72.99
2023-04-09T09:01:56.995Z,73.16
2023-04-09T09:02:57.014Z,71.50
2023-04-09T09:03:56.952Z,71.09
2023-04-09T09:04:56.888Z,71.53
2023-04-09T09:05:56.865Z,69.97
2023-04-09T09:06:56.940Z,70.75
2023-04-09T09:07:56.923Z,70.86
2023-04-09T09:08:56.863Z,73.06
2023-04-09T09:09:56.838Z,72.52
2023-04-09T09:10:56.823Z,71.73
2023-04-09T09:11:56.897Z,69.50
2023-04-09T09:12:56.836Z,67.47
2023-04-09T09:13:56.811Z,65.39
2023-04-09T09:14:56.923Z,66.02
2023-04-09T09:15:56.862Z,66.33
2023-04-09T09:16:57.934Z,66.36
2023-04-09T09:17:56.951Z,67.24
2023-04-09T09:18:57.669Z,68.08
2023-04-09T09:19:56.874Z,67.80
2023-04-09T09:20:56.767Z,68.62
2023-04-09T09:21:56.790Z,70.58
2023-04-09T09:22:57.104Z,72.01
2023-04-09T09:23:56.746Z,71.06
2023-04-09T09:24:56.740Z,71.26
2023-04-09T09:25:56.797Z,70.34
2023-04-09T09:26:56.752Z,71.16
2023-04-09T09:27:57.397Z,71.50
2023-04-09T09:28:56.755Z,71.80
2023-04-09T09:29:56.740Z,71.70
2023-04-09T09:30:56.727Z,70.72
2023-04-09T09:31:56.766Z,71.87
2023-04-09T09:32:56.717Z,71.36
2023-04-09T09:33:56.651Z,72.38
2023-04-09T09:34:56.663Z,72.14
2023-04-09T09:35:56.670Z,72.11
2023-04-09T09:36:56.668Z,71.50
2023-04-09T09:37:56.657Z,71.50
2023-04-09T09:38:56.650Z,71.29
2023-04-09T09:39:56.617Z,72.08
2023-04-09T09:40:56.614Z,72.17
2023-04-09T09:41:56.650Z,71.39
2023-04-09T09:42:57.394Z,70.58
2023-04-09T09:43:56.637Z,69.67
2023-04-09T09:44:56.649Z,71.09
2023-04-09T09:45:56.654Z,71.53
2023-04-09T09:46:56.618Z,74.15
2023-04-09T09:47:56.577Z,73.84
2023-04-09T09:49:29.329Z,73.19
2023-04-09T09:49:56.565Z,72.04
2023-04-09T09:50:56.563Z,71.39
2023-04-09T09:51:56.520Z,71.39
2023-04-09T09:52:56.488Z,70.75
2023-04-09T09:53:56.483Z,71.30
2023-04-09T09:54:56.531Z,70.48
2023-04-09T09:55:56.603Z,70.00
2023-04-09T09:56:56.553Z,71.12
2023-04-09T09:57:56.472Z,70.58
2023-04-09T09:58:56.462Z,69.26
2023-04-09T09:59:56.476Z,70.38
2023-04-09T10:00:56.549Z,69.39
2023-04-09T10:01:56.553Z,70.51
2023-04-09T10:02:56.569Z,71.02
2023-04-09T10:03:56.458Z,70.10
2023-04-09T10:04:56.413Z,70.44
2023-04-09T10:05:56.418Z,70.44
2023-04-09T10:06:56.444Z,70.41
2023-04-09T10:07:56.398Z,70.10
2023-04-09T10:08:56.390Z,70.14
2023-04-09T10:09:56.364Z,69.53
2023-04-09T10:10:56.430Z,69.29
2023-04-09T10:11:56.373Z,68.07
2023-04-09T10:12:56.364Z,67.77
2023-04-09T10:13:56.353Z,68.44
2023-04-09T10:14:56.388Z,67.60
2023-04-09T10:15:56.362Z,66.69
2023-04-09T10:16:56.358Z,66.38
2023-04-09T10:17:56.374Z,67.19
2023-04-09T10:18:56.310Z,68.28
2023-04-09T10:19:56.351Z,67.33
2023-04-09T10:20:56.320Z,67.30
2023-04-09T10:21:56.277Z,65.00
2023-04-09T10:22:56.312Z,66.05
2023-04-09T10:23:56.288Z,66.55
2023-04-09T10:24:56.288Z,66.35
2023-04-09T10:25:56.242Z,65.54
2023-04-09T10:26:56.972Z,65.97
2023-04-09T10:27:56.243Z,66.35
2023-04-09T10:28:56.255Z,65.84
2023-04-09T10:29:56.296Z,66.04
2023-04-09T10:30:56.321Z,68.51
2023-04-09T10:31:58.762Z,68.10
2023-04-09T10:32:58.145Z,68.41
2023-04-09T10:34:00.295Z,68.44
2023-04-09T10:34:56.198Z,66.10
2023-04-09T10:35:56.279Z,65.94
2023-04-09T10:36:56.330Z,64.84
2023-04-09T10:37:56.230Z,65.12
2023-04-09T10:38:56.192Z,62.98
2023-04-09T10:39:56.184Z,63.09
2023-04-09T10:40:56.169Z,63.96
2023-04-09T10:41:56.136Z,64.37
2023-04-09T10:42:57.015Z,64.78
2023-04-09T10:43:56.982Z,65.92
2023-04-09T10:44:56.228Z,65.92
2023-04-09T10:45:56.091Z,66.00
2023-04-09T10:46:56.299Z,65.97
2023-04-09T10:47:56.250Z,64.54
2023-04-09T10:48:56.095Z,64.98
2023-04-09T10:49:56.137Z,64.98
2023-04-09T10:50:56.104Z,63.48
2023-04-09T10:51:56.079Z,63.48
2023-04-09T10:52:56.043Z,63.07
2023-04-09T10:53:56.048Z,63.56
2023-04-09T10:54:56.081Z,64.06
2023-04-09T10:55:56.110Z,64.09
2023-04-09T10:56:56.061Z,64.81
2023-04-09T10:57:56.015Z,64.09
2023-04-09T10:58:56.018Z,63.35
2023-04-09T10:59:57.026Z,63.62
2023-04-09T11:00:56.033Z,63.67
2023-04-09T11:01:56.044Z,63.02
2023-04-09T11:02:56.169Z,62.36
2023-04-09T11:03:56.136Z,60.86
2023-04-09T11:04:56.054Z,61.95
2023-04-09T11:05:56.102Z,61.51
2023-04-09T11:06:56.119Z,62.20
2023-04-09T11:07:55.999Z,63.42
2023-04-09T11:08:55.930Z,64.57
2023-04-09T11:09:55.982Z,63.99
2023-04-09T11:10:55.957Z,64.73
2023-04-09T11:11:55.911Z,65.55
2023-04-09T11:12:55.915Z,64.40
2023-04-09T11:13:55.961Z,64.06
2023-04-09T11:14:55.917Z,63.96
2023-04-09T11:15:56.463Z,64.75
2023-04-09T11:16:55.875Z,63.46
2023-04-09T11:17:55.971Z,62.70
2023-04-09T11:18:55.932Z,61.01
2023-04-09T11:19:55.839Z,60.83
2023-04-09T11:20:55.886Z,62.53
2023-04-09T11:21:55.831Z,61.90
2023-04-09T11:22:55.833Z,59.58
2023-04-09T11:23:55.814Z,58.59
2023-04-09T11:24:55.813Z,59.91
2023-04-09T11:25:55.796Z,58.47
2023-04-09T11:26:55.838Z,59.41
2023-04-09T11:27:55.968Z,58.87
2023-04-09T11:28:55.797Z,58.51
2023-04-09T11:29:55.770Z,57.60
2023-04-09T11:30:55.800Z,58.71
2023-04-09T11:31:55.902Z,56.69
2023-04-09T11:32:55.830Z,57.37
2023-04-09T11:33:55.860Z,58.42
2023-04-09T11:34:55.686Z,60.27
2023-04-09T11:35:55.764Z,59.97
2023-04-09T11:36:55.704Z,60.04
2023-04-09T11:37:55.720Z,59.58
2023-04-09T11:38:55.760Z,58.16
2023-04-09T11:39:57.744Z,57.65
2023-04-09T11:40:56.676Z,58.18
2023-04-09T11:41:55.840Z,58.69
2023-04-09T11:42:55.661Z,59.48
2023-04-09T11:43:55.663Z,57.65
2023-04-09T11:44:55.726Z,57.15
2023-04-09T11:45:57.474Z,56.67
2023-04-09T11:46:55.723Z,58.27
2023-04-09T11:47:55.754Z,59.31
2023-04-09T11:48:55.649Z,59.56
2023-04-09T11:49:55.602Z,58.75
2023-04-09T11:50:55.614Z,60.01
2023-04-09T11:51:55.641Z,57.96
2023-04-09T11:52:55.602Z,58.44
2023-04-09T11:53:55.609Z,57.42
2023-04-09T11:54:56.584Z,57.20
2023-04-09T11:55:55.718Z,56.33
2023-04-09T11:56:56.428Z,55.09
2023-04-09T11:57:55.573Z,55.02
2023-04-09T11:58:55.625Z,55.90
2023-04-09T11:59:55.528Z,54.66
2023-04-09T12:00:57.647Z,53.90
2023-04-09T12:01:55.592Z,55.35
2023-04-09T12:02:56.562Z,57.17
2023-04-09T12:03:55.667Z,56.33
2023-04-09T12:04:55.620Z,55.87
2023-04-09T12:05:55.534Z,54.46
2023-04-09T12:06:55.651Z,54.03
2023-04-09T12:07:56.587Z,54.91
2023-04-09T12:08:56.470Z,54.96
2023-04-09T12:09:55.462Z,53.98
2023-04-09T12:10:55.455Z,55.85
2023-04-09T12:11:55.524Z,56.20
2023-04-09T12:12:55.470Z,54.76
2023-04-09T12:13:55.468Z,54.94
2023-04-09T12:14:55.461Z,52.87
2023-04-09T12:15:56.218Z,55.15
2023-04-09T12:16:55.535Z,55.80
2023-04-09T12:17:55.465Z,54.58
2023-04-09T12:18:55.507Z,53.78
2023-04-09T12:19:55.432Z,54.76
2023-04-09T12:20:55.530Z,52.72
2023-04-09T12:21:55.381Z,52.19
2023-04-09T12:22:55.378Z,51.86
2023-04-09T12:23:55.360Z,53.02
2023-04-09T12:24:55.389Z,53.00
2023-04-09T12:25:55.564Z,52.47
2023-04-09T12:26:55.368Z,51.43
2023-04-09T12:27:55.321Z,50.73
2023-04-09T12:28:55.365Z,52.31
2023-04-09T12:29:55.452Z,52.34
2023-04-09T12:30:55.355Z,50.55
2023-04-09T12:31:55.303Z,51.18
2023-04-09T12:32:55.357Z,52.82
2023-04-09T12:33:55.303Z,51.71
2023-04-09T12:34:55.275Z,52.36
2023-04-09T12:35:55.362Z,52.64
2023-04-09T12:36:55.282Z,53.34
2023-04-09T12:37:55.328Z,52.41
2023-04-09T12:38:55.261Z,51.50
2023-04-09T12:39:55.245Z,51.81
2023-04-09T12:40:55.256Z,52.64
2023-04-09T12:41:55.265Z,53.75
2023-04-09T12:42:55.226Z,55.07
2023-04-09T12:43:55.230Z,53.75
2023-04-09T12:44:55.216Z,54.28
2023-04-09T12:45:55.215Z,53.02
2023-04-09T12:46:55.180Z,51.78
2023-04-09T12:47:55.242Z,54.69
2023-04-09T12:48:55.191Z,51.73
2023-04-09T12:49:55.208Z,55.32
2023-04-09T12:50:55.171Z,54.91
2023-04-09T12:51:55.177Z,54.69
2023-04-09T12:52:55.233Z,54.74
2023-04-09T12:53:55.349Z,54.21
2023-04-09T12:54:55.137Z,53.40
2023-04-09T12:55:55.134Z,53.17
2023-04-09T12:56:55.136Z,51.84
2023-04-09T12:57:55.106Z,53.09
2023-04-09T12:58:55.292Z,49.11
2023-04-09T12:59:55.119Z,51.07
2023-04-09T13:00:55.116Z,52.81
2023-04-09T13:01:55.172Z,52.84
2023-04-09T13:02:56.191Z,54.28
2023-04-09T13:03:55.375Z,51.13
2023-04-09T13:04:56.131Z,50.85
2023-04-09T13:05:55.041Z,50.95
2023-04-09T13:06:55.035Z,51.81